Airfield :
LOGIN :

Register | Disclaimer

   EN    FR    IT 

 










Legend :    VFR   Marginal VFR   IFR   Intensive IFR   Very Intensive IFR
Visi :
Ceiling :
>= 8 km
>= 3000ft
5 to 8 km
1000 to 3000 ft
1500m to 5 km
500 to 1000 ft
800 to 1500m
200 to 500 ft
< 800m
< 200 ft
Symbols :   Thunderstorms  Fog  Heavy snow  Heavy precipitations  Wind > 20 kt
SIGMETs :     Misc.  Thunderstorms  Icing  Turbulence  Mountain Waves  Volcanic Ashes







- Airport Elevation : 1079 ft


ETIK - Illesheim Air Base

CURRENT METAR :
  • 211156Z AUTO 29016G20KT 9999 FEW120 SCT150 SCT200 25/10 A3001 RMK AO2 SLP153 T02500101 10269 20217 52009 $

EXPIRED METARs :
  • 211056Z AUTO 27014G21KT 9999 FEW050 FEW100 SCT130 BKN150 BKN180 BKN200 25/13 A3000 RMK AO2 PK WND 23026/28 SLP148 T02540126 $
  • 210956Z AUTO 26019G25KT 9999 FEW049 FEW060 SCT160 BKN190 26/14 A2999 RMK AO2 SLP144 T02580143 $

TAF AMD TAF ETIK
Valid from the 21 at 10:00 until the 22 at 11:00 UTC


211028Z 2110/2211 27012G25KT 9999 SCT040 510004 QNH2997INS
BECMG 2112/2113 30012G25KT 9999 SCT040 510004 QNH2998INS
TEMPO 2114/2117 8000 -SHRA BKN030
BECMG 2117/2118 30012KT 9999 SCT030 QNH3004INS
BECMG 2206/2207 28010G15KT 9999 BKN030 QNH3007INS TX27/2111Z TN10/2203Z
No reported NOTAMs for that airfield.



MET'MAP, your aeronautical weather chart ! - Copyright ORBIFLY December 2007 - Disclaimer

ORBIFLY MET'MAP TEAM :

Programming & Development : Alexandra Zaïnal
Concept & Development : Baudouin d'Aumeries
Co-Development & Prog : Marc-Olivier Méhu
Technical & hardware support : Manuel Goepfert

Contact : metmap@orbifly.com




SOURCES & CREDITS :

   NOAA